sensor_id;sensor_type;location;lat;lon;timestamp;P1;P2;P0
77692;PMS5003;66984;47.404;18.836;2023-07-13T00:00:14;6.00;6.00;2.00
77692;PMS5003;66984;47.404;18.836;2023-07-13T00:01:20;6.25;6.00;3.00
77692;PMS5003;66984;47.404;18.836;2023-07-13T00:02:30;8.00;7.00;3.00
77692;PMS5003;66984;47.404;18.836;2023-07-13T00:03:35;8.00;7.00;2.00
77692;PMS5003;66984;47.404;18.836;2023-07-13T00:04:38;7.00;7.00;2.00
77692;PMS5003;66984;47.404;18.836;2023-07-13T00:05:40;7.00;6.00;2.00
77692;PMS5003;66984;47.404;18.836;2023-07-13T00:06:44;6.25;6.25;2.00
77692;PMS5003;66984;47.404;18.836;2023-07-13T00:07:55;6.00;6.00;3.00
77692;PMS5003;66984;47.404;18.836;2023-07-13T00:08:58;6.50;6.50;2.25
77692;PMS5003;66984;47.404;18.836;2023-07-13T00:10:02;6.75;6.75;2.50
77692;PMS5003;66984;47.404;18.836;2023-07-13T00:11:19;5.75;5.00;2.00
77692;PMS5003;66984;47.404;18.836;2023-07-13T00:12:26;6.00;4.50;2.00
77692;PMS5003;66984;47.404;18.836;2023-07-13T00:13:39;5.00;5.00;1.00
77692;PMS5003;66984;47.404;18.836;2023-07-13T00:14:42;4.00;4.00;1.00
77692;PMS5003;66984;47.404;18.836;2023-07-13T00:15:45;3.50;3.50;1.25
77692;PMS5003;66984;47.404;18.836;2023-07-13T00:16:48;5.00;5.00;0.00
77692;PMS5003;66984;47.404;18.836;2023-07-13T00:17:51;4.00;4.00;0.00
77692;PMS5003;66984;47.404;18.836;2023-07-13T00:19:02;3.75;3.75;0.00
77692;PMS5003;66984;47.404;18.836;2023-07-13T00:20:06;2.00;2.00;0.00
77692;PMS5003;66984;47.404;18.836;2023-07-13T00:21:10;2.75;2.75;0.00
77692;PMS5003;66984;47.404;18.836;2023-07-13T00:22:13;3.00;3.00;0.00
77692;PMS5003;66984;47.404;18.836;2023-07-13T00:23:16;3.00;3.00;0.00
77692;PMS5003;66984;47.404;18.836;2023-07-13T00:24:26;3.00;3.00;0.00
77692;PMS5003;66984;47.404;18.836;2023-07-13T00:25:30;4.00;4.00;0.00
77692;PMS5003;66984;47.404;18.836;2023-07-13T00:26:33;3.00;2.00;0.00
77692;PMS5003;66984;47.404;18.836;2023-07-13T00:27:36;2.00;2.00;0.00
77692;PMS5003;66984;47.404;18.836;2023-07-13T00:28:39;2.00;1.00;0.00
77692;PMS5003;66984;47.404;18.836;2023-07-13T00:29:50;1.00;1.00;0.00
77692;PMS5003;66984;47.404;18.836;2023-07-13T00:30:53;1.00;1.00;0.00
77692;PMS5003;66984;47.404;18.836;2023-07-13T00:31:56;1.00;1.00;0.00
77692;PMS5003;66984;47.404;18.836;2023-07-13T00:33:00;1.00;1.00;0.00
77692;PMS5003;66984;47.404;18.836;2023-07-13T00:34:18;0.00;0.00;0.00
77692;PMS5003;66984;47.404;18.836;2023-07-13T00:35:29;0.00;0.00;0.00
77692;PMS5003;66984;47.404;18.836;2023-07-13T00:36:33;0.00;0.00;0.00
77692;PMS5003;66984;47.404;18.836;2023-07-13T00:37:36;0.00;0.00;0.00
77692;PMS5003;66984;47.404;18.836;2023-07-13T00:38:39;0.00;0.00;0.00
77692;PMS5003;66984;47.404;18.836;2023-07-13T00:39:43;1.00;0.00;0.00
77692;PMS5003;66984;47.404;18.836;2023-07-13T00:40:52;0.00;0.00;0.00
77692;PMS5003;66984;47.404;18.836;2023-07-13T00:41:56;1.25;0.00;0.00
77692;PMS5003;66984;47.404;18.836;2023-07-13T00:42:59;2.00;2.00;0.00
77692;PMS5003;66984;47.404;18.836;2023-07-13T00:44:02;0.75;0.75;0.00
77692;PMS5003;66984;47.404;18.836;2023-07-13T00:45:07;0.75;0.00;0.00
77692;PMS5003;66984;47.404;18.836;2023-07-13T00:46:27;0.00;0.00;0.00
77692;PMS5003;66984;47.404;18.836;2023-07-13T00:47:34;0.00;0.00;0.00
77692;PMS5003;66984;47.404;18.836;2023-07-13T00:48:37;1.50;1.50;0.00
77692;PMS5003;66984;47.404;18.836;2023-07-13T00:49:47;1.75;1.75;0.00
77692;PMS5003;66984;47.404;18.836;2023-07-13T00:50:50;0.00;0.00;0.00
77692;PMS5003;66984;47.404;18.836;2023-07-13T00:51:57;1.00;0.00;0.00
77692;PMS5003;66984;47.404;18.836;2023-07-13T00:53:02;1.00;0.00;0.00
77692;PMS5003;66984;47.404;18.836;2023-07-13T00:54:07;2.00;1.00;0.00
77692;PMS5003;66984;47.404;18.836;2023-07-13T00:55:20;2.00;1.00;0.00
77692;PMS5003;66984;47.404;18.836;2023-07-13T00:56:24;1.00;1.00;0.00
77692;PMS5003;66984;47.404;18.836;2023-07-13T00:57:28;0.25;0.25;0.00
77692;PMS5003;66984;47.404;18.836;2023-07-13T00:58:31;1.00;1.00;0.00
77692;PMS5003;66984;47.404;18.836;2023-07-13T00:59:34;1.00;1.00;0.00
77692;PMS5003;66984;47.404;18.836;2023-07-13T01:00:44;1.00;1.00;0.00
77692;PMS5003;66984;47.404;18.836;2023-07-13T01:01:51;0.00;0.00;0.00
77692;PMS5003;66984;47.404;18.836;2023-07-13T01:02:54;1.50;1.50;0.00
77692;PMS5003;66984;47.404;18.836;2023-07-13T01:03:57;1.25;1.25;0.00
77692;PMS5003;66984;47.404;18.836;2023-07-13T01:05:00;3.00;2.00;0.00
77692;PMS5003;66984;47.404;18.836;2023-07-13T01:06:10;1.00;1.00;0.00
77692;PMS5003;66984;47.404;18.836;2023-07-13T01:07:14;0.00;0.00;0.00
77692;PMS5003;66984;47.404;18.836;2023-07-13T01:08:17;1.00;0.00;0.00
77692;PMS5003;66984;47.404;18.836;2023-07-13T01:09:21;2.00;1.00;0.00
77692;PMS5003;66984;47.404;18.836;2023-07-13T01:10:51;1.00;1.00;0.00
77692;PMS5003;66984;47.404;18.836;2023-07-13T01:11:58;1.00;1.00;0.00
77692;PMS5003;66984;47.404;18.836;2023-07-13T01:13:01;2.00;2.00;0.00
77692;PMS5003;66984;47.404;18.836;2023-07-13T01:14:06;2.00;1.00;0.00
77692;PMS5003;66984;47.404;18.836;2023-07-13T01:16:54;0.00;0.00;0.00
77692;PMS5003;66984;47.404;18.836;2023-07-13T01:17:58;1.75;1.75;0.00
77692;PMS5003;66984;47.404;18.836;2023-07-13T01:19:02;1.00;1.00;0.00
77692;PMS5003;66984;47.404;18.836;2023-07-13T01:20:08;2.00;2.00;0.00
77692;PMS5003;66984;47.404;18.836;2023-07-13T01:21:11;1.75;1.75;0.00
77692;PMS5003;66984;47.404;18.836;2023-07-13T01:22:21;0.00;0.00;0.00
77692;PMS5003;66984;47.404;18.836;2023-07-13T01:23:29;0.00;0.00;0.00
77692;PMS5003;66984;47.404;18.836;2023-07-13T01:24:33;1.00;0.00;0.00
77692;PMS5003;66984;47.404;18.836;2023-07-13T01:25:39;0.50;0.50;0.00
77692;PMS5003;66984;47.404;18.836;2023-07-13T01:26:42;0.00;0.00;0.00
77692;PMS5003;66984;47.404;18.836;2023-07-13T01:27:51;0.00;0.00;0.00
77692;PMS5003;66984;47.404;18.836;2023-07-13T01:28:54;0.00;0.00;0.00
77692;PMS5003;66984;47.404;18.836;2023-07-13T01:29:59;0.00;0.00;0.00
77692;PMS5003;66984;47.404;18.836;2023-07-13T01:31:06;0.00;0.00;0.00
77692;PMS5003;66984;47.404;18.836;2023-07-13T01:32:09;1.00;1.00;0.00
77692;PMS5003;66984;47.404;18.836;2023-07-13T01:33:21;0.00;0.00;0.00
77692;PMS5003;66984;47.404;18.836;2023-07-13T01:34:24;1.00;0.00;0.00
77692;PMS5003;66984;47.404;18.836;2023-07-13T01:35:27;2.00;2.00;0.00
77692;PMS5003;66984;47.404;18.836;2023-07-13T01:36:30;2.00;2.00;0.00
77692;PMS5003;66984;47.404;18.836;2023-07-13T01:37:33;2.00;2.00;0.00
77692;PMS5003;66984;47.404;18.836;2023-07-13T01:38:44;0.00;0.00;0.00
77692;PMS5003;66984;47.404;18.836;2023-07-13T01:39:47;0.00;0.00;0.00
77692;PMS5003;66984;47.404;18.836;2023-07-13T01:40:51;2.00;0.00;0.00
77692;PMS5003;66984;47.404;18.836;2023-07-13T01:41:54;2.00;1.00;0.00
77692;PMS5003;66984;47.404;18.836;2023-07-13T01:42:57;1.00;1.00;0.00
77692;PMS5003;66984;47.404;18.836;2023-07-13T01:44:07;0.00;0.00;0.00
77692;PMS5003;66984;47.404;18.836;2023-07-13T01:45:10;0.00;0.00;0.00
77692;PMS5003;66984;47.404;18.836;2023-07-13T01:46:13;1.00;1.00;0.00
77692;PMS5003;66984;47.404;18.836;2023-07-13T01:47:24;2.25;2.00;0.00
77692;PMS5003;66984;47.404;18.836;2023-07-13T01:48:28;1.00;1.00;0.00
77692;PMS5003;66984;47.404;18.836;2023-07-13T01:49:37;1.00;1.00;0.00
77692;PMS5003;66984;47.404;18.836;2023-07-13T01:50:40;1.00;1.00;0.00
77692;PMS5003;66984;47.404;18.836;2023-07-13T01:51:43;1.00;1.00;0.00
77692;PMS5003;66984;47.404;18.836;2023-07-13T01:52:46;2.50;1.75;0.00
77692;PMS5003;66984;47.404;18.836;2023-07-13T01:53:49;1.00;1.00;0.00
77692;PMS5003;66984;47.404;18.836;2023-07-13T01:54:58;1.00;1.00;0.00
77692;PMS5003;66984;47.404;18.836;2023-07-13T01:56:01;1.00;1.00;0.00
77692;PMS5003;66984;47.404;18.836;2023-07-13T01:57:04;3.00;2.00;0.00
77692;PMS5003;66984;47.404;18.836;2023-07-13T01:58:07;2.00;2.00;0.00
77692;PMS5003;66984;47.404;18.836;2023-07-13T01:59:10;2.25;2.00;0.00
77692;PMS5003;66984;47.404;18.836;2023-07-13T02:00:19;1.00;1.00;0.00
77692;PMS5003;66984;47.404;18.836;2023-07-13T02:01:22;1.00;1.00;0.00
77692;PMS5003;66984;47.404;18.836;2023-07-13T02:02:25;1.50;1.50;0.00
77692;PMS5003;66984;47.404;18.836;2023-07-13T02:03:28;1.00;1.00;0.00
77692;PMS5003;66984;47.404;18.836;2023-07-13T02:04:31;0.00;0.00;0.00
77692;PMS5003;66984;47.404;18.836;2023-07-13T02:05:41;1.75;1.00;0.00
77692;PMS5003;66984;47.404;18.836;2023-07-13T02:06:44;1.00;0.00;0.00
77692;PMS5003;66984;47.404;18.836;2023-07-13T02:07:46;0.00;0.00;0.00
77692;PMS5003;66984;47.404;18.836;2023-07-13T02:08:49;1.25;1.25;0.00
77692;PMS5003;66984;47.404;18.836;2023-07-13T02:09:52;1.25;1.00;0.00
77692;PMS5003;66984;47.404;18.836;2023-07-13T02:11:15;2.50;2.50;0.00
77692;PMS5003;66984;47.404;18.836;2023-07-13T02:12:18;2.00;2.00;0.00
77692;PMS5003;66984;47.404;18.836;2023-07-13T02:13:21;1.00;1.00;0.00
77692;PMS5003;66984;47.404;18.836;2023-07-13T02:14:23;2.00;2.00;0.00
77692;PMS5003;66984;47.404;18.836;2023-07-13T02:15:26;1.00;1.00;0.00
77692;PMS5003;66984;47.404;18.836;2023-07-13T02:16:36;0.75;0.75;0.00
77692;PMS5003;66984;47.404;18.836;2023-07-13T02:17:39;0.00;0.00;0.00
77692;PMS5003;66984;47.404;18.836;2023-07-13T02:18:41;0.50;0.50;0.00
77692;PMS5003;66984;47.404;18.836;2023-07-13T02:19:44;1.00;1.00;0.00
77692;PMS5003;66984;47.404;18.836;2023-07-13T02:20:47;1.75;1.75;0.00
77692;PMS5003;66984;47.404;18.836;2023-07-13T02:21:56;1.25;1.00;0.00
77692;PMS5003;66984;47.404;18.836;2023-07-13T02:22:59;2.00;1.00;0.00
77692;PMS5003;66984;47.404;18.836;2023-07-13T02:24:02;3.00;2.00;0.00
77692;PMS5003;66984;47.404;18.836;2023-07-13T02:25:06;0.00;0.00;0.00
77692;PMS5003;66984;47.404;18.836;2023-07-13T02:26:09;0.00;0.00;0.00
77692;PMS5003;66984;47.404;18.836;2023-07-13T02:27:18;0.75;0.75;0.00
77692;PMS5003;66984;47.404;18.836;2023-07-13T02:28:21;0.50;0.50;0.00
77692;PMS5003;66984;47.404;18.836;2023-07-13T02:29:24;0.00;0.00;0.00
77692;PMS5003;66984;47.404;18.836;2023-07-13T02:30:27;2.00;1.00;0.00
77692;PMS5003;66984;47.404;18.836;2023-07-13T02:31:32;1.75;1.75;0.00
77692;PMS5003;66984;47.404;18.836;2023-07-13T02:32:42;1.00;1.00;0.00
77692;PMS5003;66984;47.404;18.836;2023-07-13T02:33:46;1.00;1.00;0.00
77692;PMS5003;66984;47.404;18.836;2023-07-13T02:34:49;1.00;1.00;0.00
77692;PMS5003;66984;47.404;18.836;2023-07-13T02:35:51;1.00;1.00;0.00
77692;PMS5003;66984;47.404;18.836;2023-07-13T02:36:54;0.00;0.00;0.00
77692;PMS5003;66984;47.404;18.836;2023-07-13T02:38:04;0.00;0.00;0.00
77692;PMS5003;66984;47.404;18.836;2023-07-13T02:39:07;0.00;0.00;0.00
77692;PMS5003;66984;47.404;18.836;2023-07-13T02:40:09;2.75;1.75;0.00
77692;PMS5003;66984;47.404;18.836;2023-07-13T02:41:13;3.00;2.75;0.00
77692;PMS5003;66984;47.404;18.836;2023-07-13T02:42:15;2.00;2.00;0.00
77692;PMS5003;66984;47.404;18.836;2023-07-13T02:43:24;2.50;2.50;0.00
77692;PMS5003;66984;47.404;18.836;2023-07-13T02:44:27;2.00;2.00;0.00
77692;PMS5003;66984;47.404;18.836;2023-07-13T02:45:30;1.00;1.00;0.00
77692;PMS5003;66984;47.404;18.836;2023-07-13T02:46:34;2.00;0.75;0.00
77692;PMS5003;66984;47.404;18.836;2023-07-13T02:47:45;3.00;3.00;0.00
77692;PMS5003;66984;47.404;18.836;2023-07-13T02:48:48;3.00;3.00;0.00
77692;PMS5003;66984;47.404;18.836;2023-07-13T02:49:51;2.50;2.50;0.00
77692;PMS5003;66984;47.404;18.836;2023-07-13T02:50:54;2.75;1.50;0.00
77692;PMS5003;66984;47.404;18.836;2023-07-13T02:51:57;3.00;2.50;0.00
77692;PMS5003;66984;47.404;18.836;2023-07-13T02:53:06;1.50;1.00;0.00
77692;PMS5003;66984;47.404;18.836;2023-07-13T02:54:09;2.75;1.75;0.00
77692;PMS5003;66984;47.404;18.836;2023-07-13T02:55:14;1.25;1.00;0.00
77692;PMS5003;66984;47.404;18.836;2023-07-13T02:56:17;1.00;1.00;0.00
77692;PMS5003;66984;47.404;18.836;2023-07-13T02:57:24;2.25;2.25;0.00
77692;PMS5003;66984;47.404;18.836;2023-07-13T02:58:34;2.00;2.00;0.00
77692;PMS5003;66984;47.404;18.836;2023-07-13T02:59:39;2.50;2.50;0.00
77692;PMS5003;66984;47.404;18.836;2023-07-13T03:00:42;2.25;2.25;0.00
77692;PMS5003;66984;47.404;18.836;2023-07-13T03:01:46;2.00;2.00;0.00
77692;PMS5003;66984;47.404;18.836;2023-07-13T03:02:56;2.00;2.00;0.00
77692;PMS5003;66984;47.404;18.836;2023-07-13T03:04:00;3.00;3.00;0.00
77692;PMS5003;66984;47.404;18.836;2023-07-13T03:05:03;1.00;1.00;0.00
77692;PMS5003;66984;47.404;18.836;2023-07-13T03:06:07;3.00;3.00;1.00
77692;PMS5003;66984;47.404;18.836;2023-07-13T03:07:11;2.50;2.50;1.50
77692;PMS5003;66984;47.404;18.836;2023-07-13T03:08:23;2.00;2.00;1.00
77692;PMS5003;66984;47.404;18.836;2023-07-13T03:09:25;3.00;3.00;1.00
77692;PMS5003;66984;47.404;18.836;2023-07-13T03:10:28;2.25;2.00;1.00
77692;PMS5003;66984;47.404;18.836;2023-07-13T03:11:44;3.00;3.00;0.00
77692;PMS5003;66984;47.404;18.836;2023-07-13T03:12:47;0.00;0.00;0.00
77692;PMS5003;66984;47.404;18.836;2023-07-13T03:13:57;1.00;1.00;1.00
77692;PMS5003;66984;47.404;18.836;2023-07-13T03:14:59;1.25;1.25;0.00
77692;PMS5003;66984;47.404;18.836;2023-07-13T03:16:02;2.00;2.00;0.00
77692;PMS5003;66984;47.404;18.836;2023-07-13T03:17:05;1.75;1.75;0.50
77692;PMS5003;66984;47.404;18.836;2023-07-13T03:18:15;1.00;1.00;0.00
77692;PMS5003;66984;47.404;18.836;2023-07-13T03:19:18;3.75;3.75;0.00
77692;PMS5003;66984;47.404;18.836;2023-07-13T03:20:21;3.00;2.00;0.00
77692;PMS5003;66984;47.404;18.836;2023-07-13T03:21:24;3.00;3.00;0.00
77692;PMS5003;66984;47.404;18.836;2023-07-13T03:22:26;4.00;3.75;0.00
77692;PMS5003;66984;47.404;18.836;2023-07-13T03:23:36;3.00;3.00;0.00
77692;PMS5003;66984;47.404;18.836;2023-07-13T03:24:39;1.00;1.00;0.00
77692;PMS5003;66984;47.404;18.836;2023-07-13T03:25:42;3.00;3.00;0.00
77692;PMS5003;66984;47.404;18.836;2023-07-13T03:26:45;2.25;2.00;0.00
77692;PMS5003;66984;47.404;18.836;2023-07-13T03:27:48;2.00;2.00;0.00
77692;PMS5003;66984;47.404;18.836;2023-07-13T03:28:57;2.75;2.00;0.00
77692;PMS5003;66984;47.404;18.836;2023-07-13T03:30:00;3.50;3.00;0.00
77692;PMS5003;66984;47.404;18.836;2023-07-13T03:31:04;3.00;3.00;0.00
77692;PMS5003;66984;47.404;18.836;2023-07-13T03:32:12;4.00;3.00;0.00
77692;PMS5003;66984;47.404;18.836;2023-07-13T03:33:15;3.00;3.00;0.00
77692;PMS5003;66984;47.404;18.836;2023-07-13T03:34:24;3.25;3.25;0.00
77692;PMS5003;66984;47.404;18.836;2023-07-13T03:35:27;4.00;4.00;0.00
77692;PMS5003;66984;47.404;18.836;2023-07-13T03:36:30;4.00;4.00;0.00
77692;PMS5003;66984;47.404;18.836;2023-07-13T03:37:35;3.00;3.00;0.00
77692;PMS5003;66984;47.404;18.836;2023-07-13T03:38:50;3.00;3.00;0.00
77692;PMS5003;66984;47.404;18.836;2023-07-13T03:39:55;2.00;2.00;0.00
77692;PMS5003;66984;47.404;18.836;2023-07-13T03:40:58;5.25;4.25;0.00
77692;PMS5003;66984;47.404;18.836;2023-07-13T03:42:01;5.00;4.75;0.00
77692;PMS5003;66984;47.404;18.836;2023-07-13T03:43:05;3.50;3.00;0.00
77692;PMS5003;66984;47.404;18.836;2023-07-13T03:44:15;2.00;2.00;0.00
77692;PMS5003;66984;47.404;18.836;2023-07-13T03:45:19;2.00;2.00;0.00
77692;PMS5003;66984;47.404;18.836;2023-07-13T03:46:22;3.00;3.00;0.00
77692;PMS5003;66984;47.404;18.836;2023-07-13T03:47:25;4.50;4.50;0.00
77692;PMS5003;66984;47.404;18.836;2023-07-13T03:48:28;3.75;3.75;0.00
77692;PMS5003;66984;47.404;18.836;2023-07-13T03:49:37;2.25;2.25;0.00
77692;PMS5003;66984;47.404;18.836;2023-07-13T03:50:40;2.75;2.75;0.00
77692;PMS5003;66984;47.404;18.836;2023-07-13T03:51:43;4.00;4.00;0.00
77692;PMS5003;66984;47.404;18.836;2023-07-13T03:52:46;5.00;5.00;0.00
77692;PMS5003;66984;47.404;18.836;2023-07-13T03:53:56;7.00;7.00;0.00
77692;PMS5003;66984;47.404;18.836;2023-07-13T03:54:59;5.00;5.00;1.00
77692;PMS5003;66984;47.404;18.836;2023-07-13T03:56:02;4.00;4.00;0.00
77692;PMS5003;66984;47.404;18.836;2023-07-13T03:57:05;7.25;6.00;2.50
77692;PMS5003;66984;47.404;18.836;2023-07-13T03:58:25;5.75;5.00;2.00
77692;PMS5003;66984;47.404;18.836;2023-07-13T03:59:42;5.00;5.00;1.00
77692;PMS5003;66984;47.404;18.836;2023-07-13T04:00:44;4.75;4.75;2.00
77692;PMS5003;66984;47.404;18.836;2023-07-13T04:01:48;3.00;3.00;1.00
77692;PMS5003;66984;47.404;18.836;2023-07-13T04:02:51;4.00;4.00;0.00
77692;PMS5003;66984;47.404;18.836;2023-07-13T04:04:01;4.25;4.25;0.75
77692;PMS5003;66984;47.404;18.836;2023-07-13T04:05:04;4.00;4.00;2.00
77692;PMS5003;66984;47.404;18.836;2023-07-13T04:06:12;5.75;4.50;2.00
77692;PMS5003;66984;47.404;18.836;2023-07-13T04:07:23;5.25;5.00;2.00
77692;PMS5003;66984;47.404;18.836;2023-07-13T04:08:29;7.00;7.00;3.00
77692;PMS5003;66984;47.404;18.836;2023-07-13T04:09:41;7.25;6.00;3.00
77692;PMS5003;66984;47.404;18.836;2023-07-13T04:10:57;5.75;5.00;2.00
77692;PMS5003;66984;47.404;18.836;2023-07-13T04:12:07;6.25;5.75;2.00
77692;PMS5003;66984;47.404;18.836;2023-07-13T04:13:10;5.00;5.00;1.00
77692;PMS5003;66984;47.404;18.836;2023-07-13T04:14:19;6.00;6.00;3.00
77692;PMS5003;66984;47.404;18.836;2023-07-13T04:15:21;4.00;4.00;1.00
77692;PMS5003;66984;47.404;18.836;2023-07-13T04:16:24;4.25;4.25;1.50
77692;PMS5003;66984;47.404;18.836;2023-07-13T04:17:28;5.00;5.00;2.00
77692;PMS5003;66984;47.404;18.836;2023-07-13T04:18:31;5.00;5.00;1.00
77692;PMS5003;66984;47.404;18.836;2023-07-13T04:19:41;5.00;5.00;1.00
77692;PMS5003;66984;47.404;18.836;2023-07-13T04:20:44;4.00;3.25;1.00
77692;PMS5003;66984;47.404;18.836;2023-07-13T04:21:46;5.50;5.50;0.00
77692;PMS5003;66984;47.404;18.836;2023-07-13T04:22:50;5.00;5.00;1.00
77692;PMS5003;66984;47.404;18.836;2023-07-13T04:23:53;6.00;5.25;2.00
77692;PMS5003;66984;47.404;18.836;2023-07-13T04:25:03;4.75;4.00;1.00
77692;PMS5003;66984;47.404;18.836;2023-07-13T04:26:07;7.50;7.00;1.00
77692;PMS5003;66984;47.404;18.836;2023-07-13T04:27:11;5.50;5.50;1.00
77692;PMS5003;66984;47.404;18.836;2023-07-13T04:28:15;7.00;7.00;1.75
77692;PMS5003;66984;47.404;18.836;2023-07-13T04:29:26;5.25;5.00;2.00
77692;PMS5003;66984;47.404;18.836;2023-07-13T04:30:29;6.00;6.00;2.25
77692;PMS5003;66984;47.404;18.836;2023-07-13T04:31:32;5.25;5.00;1.25
77692;PMS5003;66984;47.404;18.836;2023-07-13T04:32:35;5.00;5.00;2.00
77692;PMS5003;66984;47.404;18.836;2023-07-13T04:33:38;5.75;4.00;2.00
77692;PMS5003;66984;47.404;18.836;2023-07-13T04:34:49;6.00;5.00;4.00
77692;PMS5003;66984;47.404;18.836;2023-07-13T04:35:56;5.00;5.00;3.00
77692;PMS5003;66984;47.404;18.836;2023-07-13T04:36:59;5.00;5.00;3.00
77692;PMS5003;66984;47.404;18.836;2023-07-13T04:38:03;4.00;4.00;2.00
77692;PMS5003;66984;47.404;18.836;2023-07-13T04:39:06;5.50;4.00;2.00
77692;PMS5003;66984;47.404;18.836;2023-07-13T04:40:16;7.00;7.00;3.00
77692;PMS5003;66984;47.404;18.836;2023-07-13T04:41:20;6.50;6.50;3.00
77692;PMS5003;66984;47.404;18.836;2023-07-13T04:42:23;8.00;8.00;2.25
77692;PMS5003;66984;47.404;18.836;2023-07-13T04:43:26;6.00;6.00;3.00
77692;PMS5003;66984;47.404;18.836;2023-07-13T04:44:37;4.00;4.00;2.00
77692;PMS5003;66984;47.404;18.836;2023-07-13T04:45:40;5.00;4.50;1.00
77692;PMS5003;66984;47.404;18.836;2023-07-13T04:46:43;4.25;4.25;1.00
77692;PMS5003;66984;47.404;18.836;2023-07-13T04:47:46;5.00;4.00;3.00
77692;PMS5003;66984;47.404;18.836;2023-07-13T04:48:49;7.00;5.25;2.00
77692;PMS5003;66984;47.404;18.836;2023-07-13T04:50:02;6.00;6.00;2.00
77692;PMS5003;66984;47.404;18.836;2023-07-13T04:51:05;6.75;6.00;1.00
77692;PMS5003;66984;47.404;18.836;2023-07-13T04:52:09;7.00;7.00;1.00
77692;PMS5003;66984;47.404;18.836;2023-07-13T04:53:12;5.50;4.00;2.00
77692;PMS5003;66984;47.404;18.836;2023-07-13T04:54:15;8.00;8.00;2.00
77692;PMS5003;66984;47.404;18.836;2023-07-13T04:55:25;9.00;8.00;3.75
77692;PMS5003;66984;47.404;18.836;2023-07-13T04:56:28;9.00;9.00;3.00
77692;PMS5003;66984;47.404;18.836;2023-07-13T04:57:31;8.50;7.00;3.00
77692;PMS5003;66984;47.404;18.836;2023-07-13T04:58:34;8.00;7.00;3.00
77692;PMS5003;66984;47.404;18.836;2023-07-13T04:59:44;10.75;9.00;3.00
77692;PMS5003;66984;47.404;18.836;2023-07-13T05:00:47;9.00;8.75;5.00
77692;PMS5003;66984;47.404;18.836;2023-07-13T05:01:51;10.75;9.75;4.25
77692;PMS5003;66984;47.404;18.836;2023-07-13T05:02:55;10.25;9.00;4.00
77692;PMS5003;66984;47.404;18.836;2023-07-13T05:03:58;9.00;8.00;4.00
77692;PMS5003;66984;47.404;18.836;2023-07-13T05:05:09;7.00;6.75;3.00
77692;PMS5003;66984;47.404;18.836;2023-07-13T05:06:12;7.00;6.00;2.00
77692;PMS5003;66984;47.404;18.836;2023-07-13T05:07:16;6.00;6.00;1.00
77692;PMS5003;66984;47.404;18.836;2023-07-13T05:08:19;5.00;5.00;1.00
77692;PMS5003;66984;47.404;18.836;2023-07-13T05:09:22;4.25;3.25;1.00
77692;PMS5003;66984;47.404;18.836;2023-07-13T05:10:31;6.00;5.00;1.00
77692;PMS5003;66984;47.404;18.836;2023-07-13T05:11:40;4.50;4.00;0.00
77692;PMS5003;66984;47.404;18.836;2023-07-13T05:12:43;3.00;3.00;0.00
77692;PMS5003;66984;47.404;18.836;2023-07-13T05:13:46;3.00;3.00;0.00
77692;PMS5003;66984;47.404;18.836;2023-07-13T05:14:55;2.00;2.00;0.00
77692;PMS5003;66984;47.404;18.836;2023-07-13T05:15:59;3.25;3.25;0.00
77692;PMS5003;66984;47.404;18.836;2023-07-13T05:17:10;2.00;2.00;0.00
77692;PMS5003;66984;47.404;18.836;2023-07-13T05:18:13;3.00;3.00;0.00
77692;PMS5003;66984;47.404;18.836;2023-07-13T05:19:15;4.00;4.00;0.00
77692;PMS5003;66984;47.404;18.836;2023-07-13T05:20:25;2.00;2.00;0.00
77692;PMS5003;66984;47.404;18.836;2023-07-13T05:21:28;3.00;2.00;0.00
77692;PMS5003;66984;47.404;18.836;2023-07-13T05:22:31;3.00;3.00;0.00
77692;PMS5003;66984;47.404;18.836;2023-07-13T05:23:34;4.00;3.75;0.00
77692;PMS5003;66984;47.404;18.836;2023-07-13T05:24:38;3.00;3.00;0.00
77692;PMS5003;66984;47.404;18.836;2023-07-13T05:25:48;3.00;3.00;0.00
77692;PMS5003;66984;47.404;18.836;2023-07-13T05:26:51;2.75;2.00;0.00
77692;PMS5003;66984;47.404;18.836;2023-07-13T05:27:54;2.25;2.00;0.00
77692;PMS5003;66984;47.404;18.836;2023-07-13T05:28:57;2.50;2.00;0.00
77692;PMS5003;66984;47.404;18.836;2023-07-13T05:30:06;3.00;3.00;0.00
77692;PMS5003;66984;47.404;18.836;2023-07-13T05:31:13;2.25;2.25;0.00
77692;PMS5003;66984;47.404;18.836;2023-07-13T05:32:17;2.00;2.00;0.00
77692;PMS5003;66984;47.404;18.836;2023-07-13T05:33:21;3.00;2.75;0.00
77692;PMS5003;66984;47.404;18.836;2023-07-13T05:34:24;3.00;2.00;0.00
77692;PMS5003;66984;47.404;18.836;2023-07-13T05:35:33;2.00;2.00;0.00
77692;PMS5003;66984;47.404;18.836;2023-07-13T05:36:36;3.00;2.00;0.00
77692;PMS5003;66984;47.404;18.836;2023-07-13T05:37:39;3.00;2.00;0.00
77692;PMS5003;66984;47.404;18.836;2023-07-13T05:38:42;2.75;2.00;0.00
77692;PMS5003;66984;47.404;18.836;2023-07-13T05:39:45;1.00;0.00;0.00
77692;PMS5003;66984;47.404;18.836;2023-07-13T05:40:55;2.00;0.25;0.00
77692;PMS5003;66984;47.404;18.836;2023-07-13T05:41:59;2.50;2.50;0.00
77692;PMS5003;66984;47.404;18.836;2023-07-13T05:43:01;1.00;1.00;0.00
77692;PMS5003;66984;47.404;18.836;2023-07-13T05:44:04;1.00;1.00;0.00
77692;PMS5003;66984;47.404;18.836;2023-07-13T05:45:14;2.00;2.00;0.00
77692;PMS5003;66984;47.404;18.836;2023-07-13T05:46:17;1.00;1.00;0.00
77692;PMS5003;66984;47.404;18.836;2023-07-13T05:47:20;2.00;2.00;0.00
77692;PMS5003;66984;47.404;18.836;2023-07-13T05:48:23;2.00;2.00;0.00
77692;PMS5003;66984;47.404;18.836;2023-07-13T05:49:26;2.75;2.75;0.00
77692;PMS5003;66984;47.404;18.836;2023-07-13T05:50:35;2.00;2.00;0.00
77692;PMS5003;66984;47.404;18.836;2023-07-13T05:51:38;2.00;1.00;0.00
77692;PMS5003;66984;47.404;18.836;2023-07-13T05:52:41;2.25;2.00;0.00
77692;PMS5003;66984;47.404;18.836;2023-07-13T05:53:44;2.00;2.00;0.00
77692;PMS5003;66984;47.404;18.836;2023-07-13T05:54:47;1.25;1.25;0.00
77692;PMS5003;66984;47.404;18.836;2023-07-13T05:55:56;1.50;1.00;0.00
77692;PMS5003;66984;47.404;18.836;2023-07-13T05:57:03;3.00;2.00;0.00
77692;PMS5003;66984;47.404;18.836;2023-07-13T05:58:06;2.00;2.00;0.00
77692;PMS5003;66984;47.404;18.836;2023-07-13T05:59:09;2.50;2.50;0.00
77692;PMS5003;66984;47.404;18.836;2023-07-13T06:00:18;1.00;1.00;0.00
77692;PMS5003;66984;47.404;18.836;2023-07-13T06:01:21;1.00;1.00;0.00
77692;PMS5003;66984;47.404;18.836;2023-07-13T06:02:27;1.50;1.50;0.00
77692;PMS5003;66984;47.404;18.836;2023-07-13T06:03:30;3.50;2.00;0.00
77692;PMS5003;66984;47.404;18.836;2023-07-13T06:04:33;11.00;9.00;6.00
77692;PMS5003;66984;47.404;18.836;2023-07-13T06:05:42;2.75;2.75;1.00
77692;PMS5003;66984;47.404;18.836;2023-07-13T06:06:45;3.00;3.00;0.00
77692;PMS5003;66984;47.404;18.836;2023-07-13T06:07:48;2.00;1.50;0.50
77692;PMS5003;66984;47.404;18.836;2023-07-13T06:08:51;3.00;1.50;0.50
77692;PMS5003;66984;47.404;18.836;2023-07-13T06:09:54;2.00;2.00;0.00
77692;PMS5003;66984;47.404;18.836;2023-07-13T06:11:16;1.00;1.00;0.00
77692;PMS5003;66984;47.404;18.836;2023-07-13T06:12:21;1.50;1.50;0.00
77692;PMS5003;66984;47.404;18.836;2023-07-13T06:13:24;0.50;0.50;0.00
77692;PMS5003;66984;47.404;18.836;2023-07-13T06:14:27;0.00;0.00;0.00
77692;PMS5003;66984;47.404;18.836;2023-07-13T06:15:30;0.00;0.00;0.00
77692;PMS5003;66984;47.404;18.836;2023-07-13T06:16:39;1.75;1.75;0.00
77692;PMS5003;66984;47.404;18.836;2023-07-13T06:17:43;2.00;2.00;0.00